Time;durP1;ratioP1;P1;durP2;ratioP2;P2;SDS_P1;SDS_P2;PMS_P1;PMS_P2;Temp;Humidity;BMP_temperature;BMP_pressure;BME280_temperature;BME280_humidity;BME280_pressure;Samples;Min_cycle;Max_cycle;Signal;HPM_P1;HPM_P2
2023/07/07 00:02:24;;;;;;;5.25;3.03;;;12.80;99.90;;;;;;5091914;28;20225;-78
2023/07/07 00:04:50;;;;;;;4.80;2.83;;;12.80;99.90;;;;;;5094779;28;20214;-78
2023/07/07 00:07:18;;;;;;;4.80;3.10;;;12.90;99.90;;;;;;5087915;28;20226;-78
2023/07/07 00:09:45;;;;;;;6.40;2.78;;;13.10;99.90;;;;;;5086610;28;20205;-78
2023/07/07 00:12:13;;;;;;;3.80;2.50;;;13.10;99.90;;;;;;5095816;28;20689;-79
2023/07/07 00:14:41;;;;;;;6.45;3.28;;;13.20;99.90;;;;;;5087148;28;20706;-79
2023/07/07 00:17:08;;;;;;;5.78;3.20;;;13.10;99.90;;;;;;5082382;28;20193;-78
2023/07/07 00:19:36;;;;;;;2.70;2.20;;;12.70;99.90;;;;;;5094548;28;20296;-79
2023/07/07 00:22:06;;;;;;;7.43;3.37;;;12.20;99.90;;;;;;5079819;28;20226;-78
2023/07/07 00:24:33;;;;;;;4.73;3.47;;;12.20;99.90;;;;;;5082989;28;20692;-78
2023/07/07 00:27:00;;;;;;;5.67;3.60;;;12.50;99.90;;;;;;5086620;28;20763;-78
2023/07/07 00:29:27;;;;;;;5.90;3.73;;;12.60;99.90;;;;;;5083676;28;20259;-78
2023/07/07 00:31:55;;;;;;;5.47;3.37;;;12.70;99.90;;;;;;5087046;28;20226;-78
2023/07/07 00:34:22;;;;;;;8.23;3.43;;;12.70;99.90;;;;;;5085827;28;20204;-77
2023/07/07 00:36:49;;;;;;;6.20;3.60;;;12.50;99.90;;;;;;5088157;28;20210;-77
2023/07/07 00:39:16;;;;;;;3.93;2.93;;;12.50;99.90;;;;;;5090844;28;20215;-77
2023/07/07 00:41:42;;;;;;;4.27;3.27;;;12.30;99.90;;;;;;5086054;28;20222;-78
2023/07/07 00:44:11;;;;;;;8.93;3.60;;;12.50;99.90;;;;;;5084126;28;20209;-78
2023/07/07 00:46:39;;;;;;;5.67;3.30;;;12.70;99.90;;;;;;5088861;28;20685;-77
2023/07/07 00:49:12;;;;;;;6.43;3.00;;;12.20;99.90;;;;;;5088966;28;20210;-78
2023/07/07 00:51:42;;;;;;;9.20;3.20;;;12.30;99.90;;;;;;5095662;28;20562;-78
2023/07/07 00:54:15;;;;;;;5.27;3.23;;;12.30;99.90;;;;;;5083904;28;20293;-78
2023/07/07 00:56:47;;;;;;;5.03;3.33;;;12.30;99.90;;;;;;5095576;28;20212;-78
2023/07/07 00:59:17;;;;;;;5.57;3.50;;;12.30;99.90;;;;;;5095470;28;20485;-78
2023/07/07 01:01:45;;;;;;;5.30;2.90;;;12.30;99.90;;;;;;5094621;28;20241;-79
2023/07/07 01:04:17;;;;;;;9.47;3.47;;;12.40;99.90;;;;;;5091687;28;20670;-78
2023/07/07 01:06:48;;;;;;;6.03;3.07;;;12.30;99.90;;;;;;5085000;28;20221;-78
2023/07/07 01:09:15;;;;;;;6.03;3.17;;;12.40;99.90;;;;;;5094005;28;20206;-79
2023/07/07 01:11:42;;;;;;;8.63;3.80;;;12.30;99.90;;;;;;5094616;28;20231;-79
2023/07/07 01:14:12;;;;;;;4.80;3.10;;;12.30;99.90;;;;;;5086893;28;20198;-78
2023/07/07 01:16:51;;;;;;;7.27;3.30;;;12.40;99.90;;;;;;5089070;28;20204;-79
2023/07/07 01:19:46;;;;;;;6.13;3.70;;;12.40;99.90;;;;;;5093427;28;20208;-78
2023/07/07 01:22:32;;;;;;;7.17;3.57;;;12.40;99.90;;;;;;5092770;28;20599;-78
2023/07/07 01:25:07;;;;;;;5.53;3.57;;;12.40;99.90;;;;;;5093007;28;20299;-78
2023/07/07 01:28:00;;;;;;;7.23;3.10;;;12.40;99.90;;;;;;5085243;28;20217;-78
2023/07/07 01:30:43;;;;;;;4.60;3.00;;;12.50;99.90;;;;;;5087713;28;20204;-78
2023/07/07 01:33:12;;;;;;;4.27;3.00;;;12.40;99.90;;;;;;5082914;28;20202;-78
2023/07/07 01:35:39;;;;;;;5.00;3.10;;;12.60;99.90;;;;;;5091683;28;20201;-78
2023/07/07 01:38:07;;;;;;;3.47;3.17;;;12.50;99.90;;;;;;5095135;28;20264;-78
2023/07/07 01:40:43;;;;;;;5.70;3.67;;;12.50;99.90;;;;;;5087793;28;20198;-78
2023/07/07 01:43:14;;;;;;;4.93;3.53;;;12.40;99.90;;;;;;5086181;28;20197;-79
2023/07/07 01:45:48;;;;;;;5.03;3.70;;;12.30;99.90;;;;;;5090790;28;20198;-79
2023/07/07 01:48:23;;;;;;;6.33;3.60;;;12.40;99.90;;;;;;5091058;28;20221;-79
2023/07/07 01:50:52;;;;;;;4.33;3.47;;;12.30;99.90;;;;;;5089532;28;20241;-79
2023/07/07 01:53:22;;;;;;;9.10;3.10;;;12.20;99.90;;;;;;5085367;28;20631;-78
2023/07/07 01:55:52;;;;;;;4.90;3.50;;;12.00;99.90;;;;;;5087258;28;20204;-79
2023/07/07 01:58:21;;;;;;;6.63;4.23;;;12.00;99.90;;;;;;5085074;28;20654;-78
2023/07/07 02:00:51;;;;;;;8.20;4.73;;;12.10;99.90;;;;;;5086939;28;20208;-79
2023/07/07 02:03:19;;;;;;;9.17;5.27;;;12.30;99.90;;;;;;5086623;28;20203;-78
2023/07/07 02:05:46;;;;;;;8.37;4.13;;;12.40;99.90;;;;;;5094363;28;20229;-79
2023/07/07 02:08:14;;;;;;;9.30;4.67;;;12.30;99.90;;;;;;5088864;28;20220;-78
2023/07/07 02:10:41;;;;;;;4.40;3.53;;;12.20;99.90;;;;;;5086426;28;20209;-78
2023/07/07 02:13:08;;;;;;;4.40;3.20;;;12.40;99.90;;;;;;5086606;28;20662;-78
2023/07/07 02:15:34;;;;;;;6.50;3.07;;;12.30;99.90;;;;;;5086562;28;20201;-77
2023/07/07 02:18:03;;;;;;;6.10;3.40;;;12.30;99.90;;;;;;5095412;28;20573;-78
2023/07/07 02:20:30;;;;;;;4.60;2.90;;;12.20;99.90;;;;;;5087076;28;20208;-78
2023/07/07 02:22:57;;;;;;;4.40;2.87;;;12.10;99.90;;;;;;5084269;28;20241;-78
2023/07/07 02:25:24;;;;;;;5.73;2.87;;;12.10;99.90;;;;;;5090987;28;20276;-78
2023/07/07 02:27:50;;;;;;;5.53;3.00;;;12.10;99.90;;;;;;5090895;28;20245;-78
2023/07/07 02:30:17;;;;;;;3.60;3.30;;;12.10;99.90;;;;;;5086214;28;20198;-78
2023/07/07 02:32:44;;;;;;;5.40;3.10;;;12.20;99.90;;;;;;5093166;28;20220;-77
2023/07/07 02:35:14;;;;;;;6.80;3.37;;;12.20;99.90;;;;;;5093831;28;20201;-78
2023/07/07 02:37:40;;;;;;;5.90;3.40;;;11.80;99.90;;;;;;5091146;28;20247;-78
2023/07/07 02:40:09;;;;;;;4.27;2.90;;;11.80;99.90;;;;;;5098161;28;20675;-78
2023/07/07 02:42:36;;;;;;;4.87;3.43;;;11.80;99.90;;;;;;5098361;28;20224;-79
2023/07/07 02:45:03;;;;;;;5.50;3.13;;;11.90;99.90;;;;;;5091300;28;20194;-78
2023/07/07 02:47:30;;;;;;;5.73;3.43;;;11.90;99.90;;;;;;5090621;28;20244;-78
2023/07/07 02:49:57;;;;;;;5.57;3.30;;;11.90;99.90;;;;;;5095975;28;20646;-78
2023/07/07 02:52:26;;;;;;;4.67;3.10;;;11.90;99.90;;;;;;5092211;28;20326;-78
2023/07/07 02:54:53;;;;;;;3.67;3.03;;;11.90;99.90;;;;;;5097649;28;20205;-78
2023/07/07 02:57:20;;;;;;;4.87;2.93;;;11.90;99.90;;;;;;5098393;28;20202;-78
2023/07/07 02:59:46;;;;;;;8.77;3.53;;;11.80;99.90;;;;;;5097590;28;20555;-78
2023/07/07 03:02:13;;;;;;;6.93;3.03;;;11.80;99.90;;;;;;5090356;28;20217;-77
2023/07/07 03:04:40;;;;;;;3.83;3.10;;;11.70;99.90;;;;;;5090587;28;20285;-78
2023/07/07 03:07:07;;;;;;;7.50;3.40;;;11.80;99.90;;;;;;5090331;28;20198;-78
2023/07/07 03:09:35;;;;;;;3.47;2.70;;;11.70;99.90;;;;;;5096588;28;20209;-78
2023/07/07 03:12:02;;;;;;;6.47;3.47;;;11.80;99.90;;;;;;5092830;28;21797;-78
2023/07/07 03:14:29;;;;;;;4.70;3.33;;;11.90;99.90;;;;;;5094500;28;20223;-78
2023/07/07 03:16:57;;;;;;;5.10;3.00;;;11.80;99.90;;;;;;5089957;28;20587;-78
2023/07/07 03:19:24;;;;;;;5.03;2.90;;;11.90;99.90;;;;;;5095401;28;20204;-77
2023/07/07 03:21:54;;;;;;;5.50;3.30;;;11.80;99.90;;;;;;5090438;28;20218;-78
2023/07/07 03:24:21;;;;;;;4.10;3.40;;;11.90;99.90;;;;;;5092135;28;20208;-78
2023/07/07 03:26:49;;;;;;;4.23;3.17;;;12.00;99.90;;;;;;5080742;28;20201;-77
2023/07/07 03:29:16;;;;;;;5.47;2.93;;;11.70;99.90;;;;;;5099222;28;20746;-77
2023/07/07 03:31:43;;;;;;;7.00;3.10;;;11.70;99.90;;;;;;5090251;28;20290;-79
2023/07/07 03:34:09;;;;;;;5.90;3.00;;;11.60;99.90;;;;;;5099016;28;20208;-79
2023/07/07 03:36:37;;;;;;;5.70;3.27;;;11.80;99.90;;;;;;5098862;28;20292;-79
2023/07/07 03:39:04;;;;;;;4.07;2.73;;;11.90;99.90;;;;;;5100714;28;20894;-79
2023/07/07 03:41:32;;;;;;;8.87;3.30;;;11.80;99.90;;;;;;5090397;28;20240;-78
2023/07/07 03:44:00;;;;;;;8.10;3.27;;;11.60;99.90;;;;;;5087014;28;20208;-78
2023/07/07 03:46:29;;;;;;;5.57;3.30;;;11.60;99.90;;;;;;5085711;28;20201;-78
2023/07/07 03:48:57;;;;;;;10.20;5.77;;;11.80;99.90;;;;;;5090080;28;20214;-77
2023/07/07 03:51:25;;;;;;;8.03;3.90;;;12.00;99.90;;;;;;5092134;28;20232;-78
2023/07/07 03:53:52;;;;;;;4.93;3.13;;;12.20;99.90;;;;;;5086988;28;20657;-78
2023/07/07 03:56:20;;;;;;;6.60;3.00;;;12.30;99.90;;;;;;5090334;28;20207;-77
2023/07/07 03:58:47;;;;;;;4.50;2.87;;;12.40;99.90;;;;;;5084342;28;20194;-77
2023/07/07 04:01:15;;;;;;;3.97;2.63;;;12.50;99.90;;;;;;5091406;28;20241;-78
2023/07/07 04:03:43;;;;;;;8.87;3.60;;;12.60;99.90;;;;;;5092252;28;20213;-77
2023/07/07 04:06:10;;;;;;;5.57;2.90;;;12.50;99.90;;;;;;5085158;28;20209;-78
2023/07/07 04:08:37;;;;;;;5.83;3.00;;;12.50;99.90;;;;;;5094335;28;20224;-78
2023/07/07 04:11:06;;;;;;;5.20;2.87;;;12.50;99.90;;;;;;5095658;28;20697;-78
2023/07/07 04:13:35;;;;;;;4.57;2.70;;;12.60;99.90;;;;;;5092781;28;20208;-78
2023/07/07 04:16:03;;;;;;;4.00;2.73;;;12.90;99.90;;;;;;5088392;28;20212;-80
2023/07/07 04:18:32;;;;;;;3.83;2.50;;;13.80;99.90;;;;;;5094212;28;20212;-79
2023/07/07 04:21:00;;;;;;;6.93;2.53;;;14.30;99.90;;;;;;5087169;28;20218;-80
2023/07/07 04:23:27;;;;;;;5.53;3.40;;;14.80;99.90;;;;;;5083457;28;20206;-79
2023/07/07 04:25:54;;;;;;;3.90;3.28;;;16.70;99.90;;;;;;5089249;28;20208;-79
2023/07/07 04:28:21;;;;;;;3.10;2.13;;;17.20;99.90;;;;;;5090615;28;20218;-78
2023/07/07 04:30:51;;;;;;;4.80;2.60;;;16.80;99.90;;;;;;5086169;28;20288;-79
2023/07/07 04:33:18;;;;;;;4.18;2.70;;;16.40;99.90;;;;;;5095177;28;20204;-79
2023/07/07 04:35:50;;;;;;;2.25;2.03;;;15.50;99.90;;;;;;5082478;28;20284;-78
2023/07/07 04:38:18;;;;;;;4.45;2.53;;;14.60;99.90;;;;;;5090753;28;20190;-79
2023/07/07 04:40:45;;;;;;;5.35;2.60;;;14.10;99.90;;;;;;5091493;28;20206;-78
2023/07/07 04:43:12;;;;;;;4.70;2.30;;;13.70;99.90;;;;;;5087626;28;20237;-79
2023/07/07 04:45:39;;;;;;;3.67;2.65;;;13.70;99.90;;;;;;5090945;28;20204;-78
2023/07/07 04:48:06;;;;;;;3.78;2.40;;;13.80;99.90;;;;;;5082357;28;20222;-78
2023/07/07 04:50:33;;;;;;;4.47;2.40;;;13.80;99.90;;;;;;5091058;28;20209;-77
2023/07/07 04:53:02;;;;;;;6.22;2.92;;;13.80;99.90;;;;;;5088134;28;20208;-78
2023/07/07 04:55:28;;;;;;;2.97;2.67;;;14.20;99.90;;;;;;5086128;28;20216;-78
2023/07/07 04:57:55;;;;;;;3.65;2.70;;;14.40;99.90;;;;;;5095380;28;20554;-79
2023/07/07 05:00:22;;;;;;;5.43;2.67;;;14.00;99.90;;;;;;5095147;28;20230;-79
2023/07/07 05:02:49;;;;;;;3.25;2.45;;;13.90;99.90;;;;;;5087034;28;20213;-78
2023/07/07 05:05:16;;;;;;;4.60;2.33;;;13.90;99.90;;;;;;5087135;28;20206;-78
2023/07/07 05:07:42;;;;;;;5.65;2.83;;;13.90;99.90;;;;;;5093096;28;20692;-79
2023/07/07 05:10:11;;;;;;;8.75;2.70;;;14.20;99.90;;;;;;5087209;28;20212;-79
2023/07/07 05:12:37;;;;;;;4.40;2.58;;;14.30;99.90;;;;;;5094146;28;20226;-78
2023/07/07 05:15:05;;;;;;;4.00;2.70;;;14.20;99.90;;;;;;5089849;28;20198;-79
2023/07/07 05:17:32;;;;;;;3.95;2.95;;;14.20;99.90;;;;;;5085672;28;20202;-80
2023/07/07 05:19:59;;;;;;;4.32;2.80;;;14.60;99.90;;;;;;5096526;28;20201;-79
2023/07/07 05:22:25;;;;;;;11.95;6.20;;;14.30;99.90;;;;;;5088026;28;20240;-79
2023/07/07 05:24:52;;;;;;;7.90;3.45;;;14.60;99.90;;;;;;5087664;28;20206;-79
2023/07/07 05:27:20;;;;;;;6.72;3.47;;;14.90;99.90;;;;;;5094430;28;20202;-79
2023/07/07 05:29:50;;;;;;;3.40;3.10;;;15.00;99.90;;;;;;5084904;28;20222;-79
2023/07/07 05:32:16;;;;;;;4.90;2.80;;;15.00;99.90;;;;;;5087245;28;20244;-78
2023/07/07 05:34:43;;;;;;;8.60;3.03;;;15.50;99.90;;;;;;5094283;28;20202;-79
2023/07/07 05:37:10;;;;;;;8.93;3.38;;;15.60;99.90;;;;;;5088311;28;20205;-78
2023/07/07 05:39:37;;;;;;;5.80;3.28;;;15.60;99.90;;;;;;5092890;28;20208;-79
2023/07/07 05:42:04;;;;;;;4.57;2.78;;;16.30;99.90;;;;;;5095449;28;20214;-79
2023/07/07 05:44:32;;;;;;;4.80;3.05;;;17.70;99.90;;;;;;5086455;28;20202;-79
2023/07/07 05:46:59;;;;;;;4.20;2.85;;;18.50;99.90;;;;;;5089470;28;20201;-79
2023/07/07 05:49:25;;;;;;;3.45;3.05;;;18.90;99.90;;;;;;5090288;28;20260;-79
2023/07/07 05:51:52;;;;;;;5.55;3.08;;;18.20;99.90;;;;;;5094627;28;20267;-80
2023/07/07 05:54:21;;;;;;;4.75;3.28;;;18.10;99.90;;;;;;5094736;28;20194;-79
2023/07/07 05:56:47;;;;;;;5.07;3.55;;;18.00;99.90;;;;;;5094170;28;20752;-79
2023/07/07 05:59:14;;;;;;;5.68;3.10;;;18.70;99.90;;;;;;5087337;28;20226;-79
2023/07/07 06:01:43;;;;;;;7.55;3.33;;;17.90;99.90;;;;;;5091316;28;20222;-78
2023/07/07 06:04:10;;;;;;;3.03;2.78;;;17.50;99.90;;;;;;5080620;28;20646;-78
2023/07/07 06:06:39;;;;;;;6.72;3.35;;;17.40;99.90;;;;;;5085593;28;20205;-79
2023/07/07 06:09:06;;;;;;;4.72;3.38;;;17.40;99.90;;;;;;5088668;28;20218;-79
2023/07/07 06:11:33;;;;;;;8.27;3.60;;;17.40;99.90;;;;;;5098717;28;20320;-78
2023/07/07 06:14:00;;;;;;;9.18;3.30;;;17.50;99.90;;;;;;5094600;28;20281;-78
2023/07/07 06:16:26;;;;;;;6.10;3.60;;;17.50;99.90;;;;;;5094213;28;20230;-78
2023/07/07 06:18:55;;;;;;;9.48;3.28;;;17.40;99.90;;;;;;5089171;28;20196;-79
2023/07/07 06:21:21;;;;;;;8.68;3.35;;;17.60;99.90;;;;;;5099518;28;20224;-78
2023/07/07 06:23:48;;;;;;;8.23;3.42;;;17.80;99.90;;;;;;5098381;28;20232;-79
2023/07/07 06:26:15;;;;;;;7.03;3.15;;;17.70;99.90;;;;;;5097851;28;20578;-78
2023/07/07 06:28:42;;;;;;;8.32;3.38;;;17.50;99.90;;;;;;5099985;28;20223;-78
2023/07/07 06:31:09;;;;;;;6.10;3.22;;;17.70;99.90;;;;;;5099582;28;20224;-78
2023/07/07 06:33:35;;;;;;;4.95;3.08;;;17.90;99.90;;;;;;5090626;28;20212;-78
2023/07/07 06:36:04;;;;;;;5.10;3.10;;;17.90;99.90;;;;;;5091009;28;20564;-79
2023/07/07 06:38:31;;;;;;;11.93;3.30;;;18.20;99.90;;;;;;5091306;28;20209;-79
2023/07/07 06:40:58;;;;;;;5.07;3.00;;;18.10;99.90;;;;;;5097711;28;20314;-79
2023/07/07 06:43:24;;;;;;;10.35;3.65;;;18.20;99.90;;;;;;5090488;28;20234;-78
2023/07/07 06:45:55;;;;;;;8.93;3.58;;;17.90;99.90;;;;;;5095812;28;20240;-78
2023/07/07 06:48:22;;;;;;;6.13;3.10;;;17.80;99.90;;;;;;5097377;28;20212;-79
2023/07/07 06:50:50;;;;;;;5.45;3.10;;;18.20;99.90;;;;;;5089241;28;20206;-78
2023/07/07 06:53:18;;;;;;;7.82;3.35;;;18.40;99.90;;;;;;5088247;28;20201;-79
2023/07/07 06:55:46;;;;;;;11.93;3.50;;;18.40;99.90;;;;;;5095139;28;20201;-79
2023/07/07 06:58:14;;;;;;;4.80;3.10;;;18.50;99.90;;;;;;5082471;28;20198;-79
2023/07/07 07:00:42;;;;;;;7.97;3.65;;;18.00;99.90;;;;;;5084699;28;20571;-78
2023/07/07 07:03:08;;;;;;;3.58;2.95;;;18.00;99.90;;;;;;5092439;28;20203;-79
2023/07/07 07:05:35;;;;;;;7.80;3.78;;;18.30;99.90;;;;;;5085416;28;20199;-79
2023/07/07 07:08:02;;;;;;;5.75;2.88;;;18.40;99.90;;;;;;5091419;28;20206;-79
2023/07/07 07:10:30;;;;;;;7.10;2.88;;;18.50;99.90;;;;;;5092672;28;20221;-79
2023/07/07 07:12:58;;;;;;;7.45;3.22;;;18.40;99.90;;;;;;5093612;28;20584;-79
2023/07/07 07:15:25;;;;;;;5.85;3.03;;;18.50;99.90;;;;;;5091637;28;20793;-79
2023/07/07 07:17:51;;;;;;;4.82;2.50;;;18.50;99.90;;;;;;5097953;28;20588;-80
2023/07/07 07:20:18;;;;;;;4.75;3.20;;;18.70;99.90;;;;;;5098009;28;20193;-79
2023/07/07 07:22:46;;;;;;;6.25;3.28;;;19.10;99.90;;;;;;5096586;28;20296;-79
2023/07/07 07:25:13;;;;;;;7.72;3.25;;;19.10;99.90;;;;;;5095954;28;20201;-79
2023/07/07 07:27:41;;;;;;;7.63;3.40;;;18.80;99.90;;;;;;5096478;28;20204;-79
2023/07/07 07:30:11;;;;;;;6.60;2.80;;;18.80;99.90;;;;;;5097234;28;20218;-79
2023/07/07 07:32:39;;;;;;;7.30;3.42;;;19.10;99.90;;;;;;5088043;28;20249;-79
2023/07/07 07:35:06;;;;;;;5.38;2.78;;;19.00;99.90;;;;;;5095501;28;20259;-79
2023/07/07 07:37:33;;;;;;;6.65;3.22;;;19.10;99.90;;;;;;5096482;28;20233;-78
2023/07/07 07:40:00;;;;;;;4.57;2.90;;;19.40;99.90;;;;;;5086960;28;20221;-79
2023/07/07 07:42:27;;;;;;;6.60;3.00;;;19.40;99.90;;;;;;5088189;28;20230;-79
2023/07/07 07:44:55;;;;;;;6.85;3.22;;;19.30;99.90;;;;;;5085724;28;20238;-79
2023/07/07 07:47:22;;;;;;;5.10;2.83;;;19.50;99.90;;;;;;5095618;28;20206;-79
2023/07/07 07:49:49;;;;;;;4.18;2.70;;;19.40;99.90;;;;;;5095872;28;20217;-80
2023/07/07 07:52:16;;;;;;;3.83;2.42;;;19.50;99.90;;;;;;5087300;28;20221;-80
2023/07/07 07:54:44;;;;;;;3.42;2.80;;;19.60;99.90;;;;;;5087275;28;20234;-80
2023/07/07 07:57:11;;;;;;;7.75;3.25;;;19.70;99.90;;;;;;5088002;28;20208;-79
2023/07/07 07:59:37;;;;;;;5.40;2.85;;;19.80;99.90;;;;;;5096089;28;20198;-79
2023/07/07 08:02:08;;;;;;;3.95;2.90;;;19.80;99.90;;;;;;5095842;28;20214;-79
2023/07/07 08:04:35;;;;;;;5.97;3.00;;;20.00;99.90;;;;;;5088365;28;20626;-79
2023/07/07 08:07:02;;;;;;;6.68;3.10;;;19.90;99.90;;;;;;5094487;28;20280;-79
2023/07/07 08:09:29;;;;;;;4.00;2.75;;;20.00;99.90;;;;;;5087240;28;20709;-79
2023/07/07 08:11:59;;;;;;;4.95;2.65;;;20.20;99.90;;;;;;5093073;28;20229;-79
2023/07/07 08:14:36;;;;;;;4.43;2.42;;;20.30;99.90;;;;;;5083539;28;20879;-80
2023/07/07 08:17:08;;;;;;;3.40;2.60;;;20.40;99.90;;;;;;5082909;28;20556;-79
2023/07/07 08:19:36;;;;;;;4.57;2.83;;;20.50;99.90;;;;;;5085886;28;20306;-80
2023/07/07 08:22:06;;;;;;;3.75;2.67;;;20.50;99.90;;;;;;5093141;28;20232;-79
2023/07/07 08:24:37;;;;;;;4.18;2.67;;;20.70;99.90;;;;;;5093846;28;20201;-80
2023/07/07 08:27:04;;;;;;;2.75;2.50;;;20.80;99.90;;;;;;5081782;28;20214;-80
2023/07/07 08:29:31;;;;;;;6.05;2.42;;;20.90;99.90;;;;;;5082132;28;20218;-79
2023/07/07 08:31:57;;;;;;;3.50;2.70;;;21.10;99.90;;;;;;5091027;28;20221;-79
2023/07/07 08:34:26;;;;;;;5.93;2.63;;;21.20;99.90;;;;;;5089499;28;20202;-79
2023/07/07 08:36:59;;;;;;;4.53;2.72;;;21.30;99.90;;;;;;5094949;28;20208;-79
2023/07/07 08:39:27;;;;;;;4.47;2.50;;;21.40;99.90;;;;;;5087076;28;20232;-79
2023/07/07 08:41:56;;;;;;;3.30;2.53;;;21.50;99.90;;;;;;5095899;28;20221;-80
2023/07/07 08:44:25;;;;;;;3.17;2.70;;;21.40;99.90;;;;;;5087947;28;20201;-79
2023/07/07 08:47:11;;;;;;;2.55;2.35;;;21.40;99.90;;;;;;5087069;28;20230;-80
2023/07/07 08:49:47;;;;;;;5.32;2.50;;;21.50;99.90;;;;;;5095347;28;20631;-79
2023/07/07 08:52:27;;;;;;;3.72;2.40;;;21.70;99.90;;;;;;5086530;28;20221;-79
2023/07/07 08:55:02;;;;;;;2.22;2.03;;;22.20;99.90;;;;;;5094426;28;20619;-79
2023/07/07 08:57:36;;;;;;;2.28;2.08;;;22.60;99.90;;;;;;5095780;28;20223;-79
2023/07/07 09:00:10;;;;;;;3.67;2.50;;;22.90;99.90;;;;;;5094893;28;20201;-79
2023/07/07 09:02:58;;;;;;;3.90;1.75;;;23.60;99.90;;;;;;5087705;28;20228;-79
2023/07/07 09:05:41;;;;;;;2.05;1.88;;;24.00;99.90;;;;;;5081137;28;20201;-79
2023/07/07 09:08:18;;;;;;;3.33;2.03;;;24.10;99.90;;;;;;5095054;28;20204;-79
2023/07/07 09:10:52;;;;;;;5.38;2.45;;;24.50;99.90;;;;;;5086158;28;20244;-79
2023/07/07 09:13:26;;;;;;;2.15;1.98;;;24.80;99.90;;;;;;5094832;28;20213;-79
2023/07/07 09:16:02;;;;;;;3.55;2.28;;;24.80;99.90;;;;;;5093626;28;20227;-79
2023/07/07 09:18:34;;;;;;;3.63;2.22;;;24.80;99.90;;;;;;5094683;28;20201;-79
2023/07/07 09:21:04;;;;;;;2.40;2.20;;;25.20;99.90;;;;;;5094378;28;20229;-79
2023/07/07 09:23:36;;;;;;;2.63;2.10;;;25.30;99.90;;;;;;5094321;28;20201;-79
2023/07/07 09:26:09;;;;;;;2.30;2.10;;;25.70;99.90;;;;;;5093504;28;20207;-79
2023/07/07 09:28:44;;;;;;;2.40;1.90;;;26.00;99.90;;;;;;5094531;28;20547;-79
2023/07/07 09:31:28;;;;;;;3.00;2.38;;;26.30;99.90;;;;;;5094010;28;20216;-80
2023/07/07 09:33:56;;;;;;;2.75;1.98;;;25.80;99.90;;;;;;5085158;28;20576;-79
2023/07/07 09:36:30;;;;;;;2.22;1.83;;;26.20;99.90;;;;;;5086188;28;20204;-80
2023/07/07 09:39:07;;;;;;;2.85;2.08;;;26.60;1.00;;;;;;5084238;28;20212;-79
2023/07/07 09:41:48;;;;;;;1.98;1.77;;;26.20;1.00;;;;;;5081345;28;20226;-80
2023/07/07 09:44:35;;;;;;;4.35;1.90;;;26.40;1.00;;;;;;5089482;28;20205;-79
2023/07/07 09:47:11;;;;;;;2.67;1.88;;;26.80;1.00;;;;;;5083567;28;20206;-80
2023/07/07 09:49:43;;;;;;;3.40;1.88;;;26.90;1.00;;;;;;5096015;28;20602;-81
2023/07/07 09:52:28;;;;;;;2.67;1.80;;;26.60;1.00;;;;;;5086761;28;20230;-80
2023/07/07 09:54:58;;;;;;;2.45;1.92;;;26.90;1.00;;;;;;5083364;28;20201;-80
2023/07/07 09:57:30;;;;;;;2.30;2.10;;;27.30;1.00;;;;;;5089627;28;20210;-80
2023/07/07 09:59:59;;;;;;;2.88;1.98;;;27.60;1.00;;;;;;5090459;28;20207;-80
2023/07/07 10:02:27;;;;;;;4.05;2.20;;;27.60;1.00;;;;;;5092076;28;20275;-80
2023/07/07 10:05:00;;;;;;;4.43;1.90;;;27.40;1.00;;;;;;5085193;28;20205;-80
2023/07/07 10:07:35;;;;;;;3.80;2.08;;;27.70;1.00;;;;;;5075557;28;20573;-80
2023/07/07 10:10:03;;;;;;;1.90;1.80;;;28.10;1.00;;;;;;5081949;28;20331;-80
2023/07/07 10:12:30;;;;;;;1.80;1.70;;;27.80;99.90;;;;;;5081942;28;20707;-80
2023/07/07 10:14:56;;;;;;;3.47;2.00;;;28.10;95.40;;;;;;5082522;28;20202;-80
2023/07/07 10:17:32;;;;;;;2.70;2.50;;;27.90;99.90;;;;;;5093879;28;20198;-80
2023/07/07 10:20:01;;;;;;;1.98;1.70;;;28.10;31.30;;;;;;5093689;28;20679;-80
2023/07/07 10:22:29;;;;;;;3.10;2.10;;;27.80;1.00;;;;;;5087830;28;20221;-80
2023/07/07 10:24:56;;;;;;;3.75;1.77;;;28.10;99.90;;;;;;5085450;28;20202;-81
2023/07/07 10:27:27;;;;;;;2.28;2.00;;;28.30;1.00;;;;;;5086603;28;20606;-79
2023/07/07 10:29:59;;;;;;;1.90;1.80;;;28.10;1.00;;;;;;5087317;28;20233;-80
2023/07/07 10:32:26;;;;;;;2.75;1.88;;;28.30;1.00;;;;;;5090224;28;20217;-80
2023/07/07 10:34:54;;;;;;;2.90;1.98;;;29.00;1.00;;;;;;5087067;28;20204;-80
2023/07/07 10:37:23;;;;;;;2.90;2.13;;;28.50;1.00;;;;;;5078539;28;20204;-81
2023/07/07 10:39:53;;;;;;;2.28;1.73;;;28.30;1.00;;;;;;5087672;28;20262;-80
2023/07/07 10:42:23;;;;;;;2.30;2.10;;;28.90;99.90;;;;;;5093197;28;20232;-80
2023/07/07 10:44:50;;;;;;;3.15;1.85;;;29.00;99.90;;;;;;5087465;28;20214;-81
2023/07/07 10:47:21;;;;;;;1.70;1.50;;;28.30;27.90;;;;;;5087874;28;20577;-80
2023/07/07 10:49:48;;;;;;;2.90;1.77;;;28.20;1.00;;;;;;5088703;28;20222;-81
2023/07/07 10:52:42;;;;;;;3.22;1.63;;;28.40;1.00;;;;;;5087383;28;20249;-80
2023/07/07 10:55:21;;;;;;;4.32;2.03;;;28.20;1.00;;;;;;5092630;28;20208;-80
2023/07/07 10:58:04;;;;;;;2.75;2.20;;;28.30;1.00;;;;;;5087077;28;20198;-79
2023/07/07 11:00:39;;;;;;;2.70;1.80;;;28.50;1.00;;;;;;5098039;28;20218;-79
2023/07/07 11:03:51;;;;;;;1.67;1.58;;;29.00;1.00;;;;;;5094600;28;20201;-79
2023/07/07 11:06:28;;;;;;;3.60;1.92;;;29.20;1.00;;;;;;5098257;28;20220;-80
2023/07/07 11:09:09;;;;;;;5.75;2.17;;;29.00;1.00;;;;;;5092717;28;20206;-81
2023/07/07 11:11:47;;;;;;;2.15;1.90;;;29.60;1.00;;;;;;5097757;28;20225;-80
2023/07/07 11:14:29;;;;;;;1.92;1.80;;;29.80;99.90;;;;;;5089368;28;20212;-80
2023/07/07 11:17:05;;;;;;;2.78;1.80;;;29.90;1.00;;;;;;5096541;28;20233;-80
2023/07/07 11:19:54;;;;;;;2.20;2.00;;;29.60;99.90;;;;;;5097374;28;20201;-80
2023/07/07 11:22:29;;;;;;;2.10;1.90;;;28.60;1.00;;;;;;5088936;28;20264;-80
2023/07/07 11:25:02;;;;;;;2.80;1.90;;;29.60;1.00;;;;;;5091141;28;20201;-79
2023/07/07 11:27:50;;;;;;;2.15;1.95;;;29.50;1.00;;;;;;5086325;28;20198;-80
2023/07/07 11:30:25;;;;;;;2.10;1.90;;;29.20;1.00;;;;;;5088333;28;20228;-81
2023/07/07 11:33:01;;;;;;;1.80;1.70;;;29.60;1.00;;;;;;5097098;28;20564;-80
2023/07/07 11:35:48;;;;;;;2.90;1.98;;;29.50;99.90;;;;;;5089218;28;20311;-80
2023/07/07 11:38:30;;;;;;;4.38;1.90;;;29.60;1.00;;;;;;5093717;28;20201;-80
2023/07/07 11:41:12;;;;;;;1.90;1.67;;;28.80;1.00;;;;;;5084809;28;20222;-80
2023/07/07 11:44:25;;;;;;;3.42;1.80;;;28.90;1.00;;;;;;5085749;28;20584;-80
2023/07/07 11:47:07;;;;;;;2.67;1.92;;;29.40;1.00;;;;;;5083705;28;20206;-80
2023/07/07 11:50:04;;;;;;;3.38;2.00;;;29.50;1.00;;;;;;5088948;28;20209;-81
2023/07/07 11:52:44;;;;;;;2.42;2.13;;;29.10;1.00;;;;;;5087265;28;20229;-81
2023/07/07 11:55:23;;;;;;;2.50;1.90;;;29.50;1.00;;;;;;5085095;28;20206;-81
2023/07/07 11:58:04;;;;;;;2.40;1.75;;;30.00;1.00;;;;;;5084256;28;20209;-81
2023/07/07 12:00:46;;;;;;;2.33;1.73;;;30.30;1.00;;;;;;5087165;28;20201;-80
2023/07/07 12:03:44;;;;;;;3.10;1.73;;;29.70;1.00;;;;;;5085092;28;20205;-80
2023/07/07 12:06:19;;;;;;;2.45;1.92;;;29.60;1.00;;;;;;5051335;28;20216;-80
2023/07/07 12:08:57;;;;;;;1.88;1.77;;;29.70;1.00;;;;;;5094261;28;20201;-81
2023/07/07 12:11:27;;;;;;;2.83;2.05;;;29.80;1.00;;;;;;5094071;28;21095;-80
2023/07/07 12:14:12;;;;;;;1.83;1.70;;;29.70;1.00;;;;;;5087277;28;20202;-80
2023/07/07 12:16:45;;;;;;;2.78;1.80;;;28.50;1.00;;;;;;5085918;28;20206;-80
2023/07/07 12:19:24;;;;;;;2.88;1.83;;;29.30;1.00;;;;;;5094290;28;20254;-80
2023/07/07 12:21:54;;;;;;;2.33;2.13;;;29.10;1.00;;;;;;5088267;28;20222;-79
2023/07/07 12:24:28;;;;;;;2.38;2.10;;;29.60;1.00;;;;;;5087332;28;20202;-79
2023/07/07 12:27:08;;;;;;;5.32;1.80;;;29.60;1.00;;;;;;5087881;28;20225;-79
2023/07/07 12:29:38;;;;;;;3.25;1.80;;;29.60;1.00;;;;;;5089487;28;20198;-79
2023/07/07 12:32:08;;;;;;;2.75;1.90;;;29.50;1.00;;;;;;5097029;28;20677;-80
2023/07/07 12:34:39;;;;;;;2.85;2.08;;;29.70;1.00;;;;;;5082394;28;20202;-80
2023/07/07 12:37:11;;;;;;;2.70;1.80;;;29.60;1.00;;;;;;5089796;28;20207;-80
2023/07/07 12:39:38;;;;;;;3.60;2.10;;;29.50;1.00;;;;;;5094746;28;20204;-80
2023/07/07 12:42:05;;;;;;;2.55;2.10;;;28.70;1.00;;;;;;5085074;28;20531;-80
2023/07/07 12:44:34;;;;;;;2.13;1.92;;;28.90;1.00;;;;;;5085849;28;20204;-81
2023/07/07 12:47:19;;;;;;;2.42;2.00;;;28.70;1.00;;;;;;5079828;28;20198;-81
2023/07/07 12:49:53;;;;;;;3.30;2.10;;;28.30;1.00;;;;;;5087737;28;20231;-80
2023/07/07 12:52:20;;;;;;;2.58;2.00;;;28.20;1.00;;;;;;5079087;28;20222;-80
2023/07/07 12:54:53;;;;;;;2.88;1.90;;;27.70;99.90;;;;;;5093618;28;20215;-81
2023/07/07 12:57:25;;;;;;;3.22;2.30;;;28.00;1.00;;;;;;5085650;28;20206;-81
2023/07/07 12:59:52;;;;;;;2.53;1.85;;;28.40;1.00;;;;;;5088602;28;20232;-81
2023/07/07 13:02:23;;;;;;;2.35;1.80;;;28.90;1.00;;;;;;5084139;28;20218;-81
2023/07/07 13:04:52;;;;;;;4.75;2.25;;;29.00;1.00;;;;;;5087264;28;20602;-81
2023/07/07 13:07:21;;;;;;;3.35;2.40;;;28.60;1.00;;;;;;5086709;28;20209;-81